Time;durP1;ratioP1;P1;durP2;ratioP2;P2;SDS_P1;SDS_P2;PMS_P1;PMS_P2;Temp;Humidity;BMP_temperature;BMP_pressure;BME280_temperature;BME280_humidity;BME280_pressure;Samples;Min_cycle;Max_cycle;Signal;HPM_P1;HPM_P2
2023/03/28 00:01:14;;;;;;;7.10;3.50;;;;;;;12.34;52.40;98913.13;107820;1259;58267;-90
2023/03/28 00:03:44;;;;;;;5.60;3.30;;;;;;;12.31;52.47;98912.63;107413;1259;60431;-89
2023/03/28 00:06:17;;;;;;;8.40;3.80;;;;;;;12.28;52.57;98910.45;107511;1263;66477;-89
2023/03/28 00:08:46;;;;;;;5.60;3.20;;;;;;;12.27;52.70;98911.27;107611;1259;62934;-86
2023/03/28 00:11:19;;;;;;;6.40;3.60;;;;;;;12.25;52.69;98907.75;107652;1259;65138;-89
2023/03/28 00:13:52;;;;;;;6.00;3.50;;;;;;;12.24;52.80;98908.23;107462;1260;60362;-89
2023/03/28 00:16:24;;;;;;;6.30;3.30;;;;;;;12.24;52.86;98908.98;107708;1262;60531;-91
2023/03/28 00:18:54;;;;;;;6.90;4.00;;;;;;;12.25;52.83;98906.75;107525;1259;65838;-89
2023/03/28 00:21:23;;;;;;;7.20;3.40;;;;;;;12.25;52.73;98907.25;107587;1262;62607;-90
2023/03/28 00:23:53;;;;;;;7.30;3.40;;;;;;;12.24;52.73;98907.92;107205;1262;64750;-89
2023/03/28 00:26:23;;;;;;;6.10;3.60;;;;;;;12.24;52.85;98907.90;107428;1259;59234;-92
2023/03/28 00:28:52;;;;;;;7.10;3.30;;;;;;;12.27;52.84;98907.91;107339;1259;60480;-90
2023/03/28 00:31:23;;;;;;;9.00;3.60;;;;;;;12.29;52.78;98905.72;107681;1258;66347;-91
2023/03/28 00:33:52;;;;;;;7.10;3.60;;;;;;;12.29;52.73;98905.83;107459;1263;61518;-91
2023/03/28 00:36:25;;;;;;;6.00;3.60;;;;;;;12.35;52.62;98900.23;108148;1259;65042;-91
2023/03/28 00:39:00;;;;;;;8.40;3.90;;;;;;;12.39;52.53;98894.41;107419;1259;59307;-91
2023/03/28 00:41:31;;;;;;;8.40;3.70;;;;;;;12.41;52.60;98890.72;107674;1259;60517;-91
2023/03/28 00:44:00;;;;;;;6.60;3.10;;;;;;;12.40;52.69;98890.41;107445;1263;66096;-91
2023/03/28 00:46:37;;;;;;;6.50;3.60;;;;;;;12.38;52.76;98889.11;107787;1260;62331;-92
2023/03/28 00:49:20;;;;;;;6.00;3.60;;;;;;;12.36;52.78;98886.68;107694;1260;62852;-89
2023/03/28 00:51:55;;;;;;;7.60;4.00;;;;;;;12.35;52.93;98880.16;108397;1259;58285;-84
2023/03/28 00:54:26;;;;;;;7.30;3.70;;;;;;;12.33;53.05;98873.31;109116;1260;57540;-90
2023/03/28 00:56:57;;;;;;;6.70;3.70;;;;;;;12.32;53.12;98867.07;109099;1259;66093;-84
2023/03/28 00:59:26;;;;;;;6.20;3.80;;;;;;;12.29;53.29;98861.78;109178;1260;61634;-84
2023/03/28 01:01:55;;;;;;;8.10;4.00;;;;;;;12.30;53.45;98863.16;108962;1259;63729;-90
2023/03/28 01:04:24;;;;;;;6.70;3.70;;;;;;;12.31;53.57;98859.02;107264;1264;60454;-90
2023/03/28 01:06:58;;;;;;;9.30;4.60;;;;;;;12.32;53.69;98865.20;107443;1262;59151;-90
2023/03/28 01:09:27;;;;;;;7.30;3.80;;;;;;;12.33;53.93;98848.58;107065;1259;75062;-90
2023/03/28 01:11:55;;;;;;;7.60;3.90;;;;;;;12.36;54.15;98839.27;106792;1259;62543;-89
2023/03/28 01:14:26;;;;;;;6.50;3.60;;;;;;;12.42;54.16;98832.41;107375;1259;63759;-89
2023/03/28 01:17:01;;;;;;;5.50;3.20;;;;;;;12.47;54.23;98826.59;107089;1259;60366;-91
2023/03/28 01:19:42;;;;;;;7.00;3.60;;;;;;;12.49;54.32;98839.05;107453;1259;59628;-90
2023/03/28 01:22:35;;;;;;;6.40;3.60;;;;;;;12.53;54.37;98845.63;106889;1259;65938;-91
2023/03/28 01:25:23;;;;;;;6.90;3.90;;;;;;;12.57;54.34;98849.42;107346;1258;62637;-91
2023/03/28 01:28:00;;;;;;;5.60;3.40;;;;;;;12.55;54.23;98847.29;107384;1259;65017;-91
2023/03/28 01:31:00;;;;;;;7.80;3.50;;;;;;;12.46;54.43;98836.52;107300;1259;59564;-91
2023/03/28 01:34:00;;;;;;;5.80;3.00;;;;;;;12.39;54.57;98821.09;107732;1259;60519;-90
2023/03/28 01:36:44;;;;;;;7.00;3.40;;;;;;;12.35;54.76;98818.06;107972;1259;74905;-89
2023/03/28 01:39:28;;;;;;;7.20;3.90;;;;;;;12.35;54.98;98816.98;107863;1259;61650;-91
2023/03/28 01:42:03;;;;;;;7.30;4.30;;;;;;;12.34;55.00;98815.54;107762;1259;64761;-90
2023/03/28 01:44:31;;;;;;;6.90;3.80;;;;;;;12.30;54.94;98812.52;107812;1259;59348;-90
2023/03/28 01:47:44;;;;;;;7.30;3.50;;;;;;;12.27;55.04;98813.77;107770;1259;60443;-90
2023/03/28 01:51:01;;;;;;;7.10;3.70;;;;;;;12.27;55.08;98819.30;107448;1263;66077;-90
2023/03/28 01:53:50;;;;;;;8.20;3.90;;;;;;;12.24;55.13;98823.34;107180;1268;62780;-85
2023/03/28 01:56:42;;;;;;;6.90;3.90;;;;;;;12.15;55.47;98824.00;107809;1259;65291;-90
2023/03/28 01:59:25;;;;;;;6.20;3.50;;;;;;;12.06;55.72;98812.83;107355;1262;58470;-88
2023/03/28 02:02:31;;;;;;;5.50;3.50;;;;;;;12.02;55.95;98805.60;107427;1259;59097;-91
2023/03/28 02:05:08;;;;;;;6.30;3.20;;;;;;;12.07;55.86;98802.38;107409;1259;65858;-89
2023/03/28 02:07:42;;;;;;;5.70;3.50;;;;;;;12.18;55.77;98807.30;107409;1259;62465;-85
2023/03/28 02:10:14;;;;;;;6.80;3.60;;;;;;;12.24;55.82;98809.33;107672;1259;65309;-90
2023/03/28 02:12:58;;;;;;;6.20;3.60;;;;;;;12.22;55.97;98808.77;107561;1259;60361;-91
2023/03/28 02:16:04;;;;;;;7.00;3.80;;;;;;;12.27;56.11;98813.14;106999;1266;60390;-90
2023/03/28 02:18:55;;;;;;;6.20;3.60;;;;;;;12.26;56.83;98812.38;107384;1258;65889;-91
2023/03/28 02:21:33;;;;;;;6.90;3.90;;;;;;;12.27;57.27;98810.00;107338;1263;61524;-88
2023/03/28 02:24:13;;;;;;;5.90;3.60;;;;;;;12.23;57.39;98800.95;106988;1257;65130;-91
2023/03/28 02:27:07;;;;;;;7.20;4.00;;;;;;;12.12;57.78;98790.69;107533;1259;59265;-88
2023/03/28 02:29:43;;;;;;;6.60;3.60;;;;;;;12.09;58.03;98782.99;107518;1259;61561;-89
2023/03/28 02:32:20;;;;;;;6.50;3.80;;;;;;;12.16;58.11;98781.74;107773;1259;65197;-89
2023/03/28 02:34:50;;;;;;;6.50;3.80;;;;;;;12.21;58.14;98766.48;107936;1258;62370;-89
2023/03/28 02:37:40;;;;;;;7.10;3.90;;;;;;;12.22;58.42;98764.08;107664;1260;65033;-89
2023/03/28 02:40:31;;;;;;;7.00;3.50;;;;;;;12.20;58.72;98768.44;107965;1259;60468;-91
2023/03/28 02:43:09;;;;;;;7.70;4.40;;;;;;;12.15;58.90;98764.05;107953;1257;59268;-90
2023/03/28 02:45:54;;;;;;;6.50;3.60;;;;;;;12.08;59.16;98763.58;107779;1259;65995;-90
2023/03/28 02:49:00;;;;;;;6.90;4.10;;;;;;;12.05;59.51;98760.94;107523;1257;61727;-89
2023/03/28 02:51:58;;;;;;;6.80;3.60;;;;;;;12.08;59.63;98750.20;107627;1259;65136;-87
2023/03/28 02:54:35;;;;;;;6.90;4.00;;;;;;;12.05;59.32;98751.05;107551;1259;58424;-91
2023/03/28 02:57:41;;;;;;;5.50;3.20;;;;;;;12.08;59.31;98752.20;107529;1259;60482;-91
2023/03/28 03:00:17;;;;;;;5.70;3.40;;;;;;;12.13;59.27;98752.52;107747;1259;66240;-90
2023/03/28 03:02:50;;;;;;;7.20;3.70;;;;;;;12.14;59.49;98751.77;107613;1259;62456;-91
2023/03/28 03:05:19;;;;;;;9.20;3.90;;;;;;;12.14;59.43;98750.61;107369;1263;64049;-91
2023/03/28 03:07:48;;;;;;;6.00;3.70;;;;;;;12.14;59.17;98757.53;107543;1259;60391;-91
2023/03/28 03:10:20;;;;;;;7.50;4.50;;;;;;;12.08;58.97;98754.49;107642;1259;60459;-90
2023/03/28 03:12:49;;;;;;;7.50;4.00;;;;;;;11.96;59.26;98763.55;108000;1259;65829;-90
2023/03/28 03:15:17;;;;;;;7.80;4.80;;;;;;;11.83;59.77;98760.61;107454;1259;61505;-90
2023/03/28 03:17:57;;;;;;;6.90;4.10;;;;;;;11.69;60.26;98751.15;107793;1264;65011;-89
2023/03/28 03:20:33;;;;;;;7.20;4.50;;;;;;;11.62;60.54;98736.65;107517;1259;60482;-92
2023/03/28 03:23:05;;;;;;;6.10;4.10;;;;;;;11.65;60.60;98731.25;107597;1259;60618;-89
2023/03/28 03:25:34;;;;;;;7.90;3.90;;;;;;;11.74;60.65;98736.05;107358;1259;66248;-85
2023/03/28 03:28:24;;;;;;;7.00;4.10;;;;;;;11.84;60.83;98741.33;107736;1259;61387;-89
2023/03/28 03:30:53;;;;;;;8.00;4.20;;;;;;;11.87;60.98;98738.52;107723;1263;65317;-87
2023/03/28 03:33:23;;;;;;;8.10;4.50;;;;;;;11.87;61.11;98739.85;108722;1259;60303;-89
2023/03/28 03:36:08;;;;;;;6.50;4.30;;;;;;;11.87;61.32;98735.15;108881;1259;58437;-90
2023/03/28 03:38:39;;;;;;;7.50;4.00;;;;;;;11.87;61.48;98733.54;108256;1260;66018;-84
2023/03/28 03:41:08;;;;;;;6.80;4.10;;;;;;;11.89;61.50;98725.06;109115;1259;61389;-84
2023/03/28 03:43:40;;;;;;;7.10;4.10;;;;;;;11.88;61.33;98720.79;109105;1259;64049;-86
2023/03/28 03:46:08;;;;;;;10.30;4.20;;;;;;;11.85;61.14;98714.98;108960;1263;57857;-88
2023/03/28 03:48:37;;;;;;;7.50;4.30;;;;;;;11.81;61.06;98708.72;109048;1259;58076;-89
2023/03/28 03:51:17;;;;;;;6.00;3.90;;;;;;;11.85;61.01;98710.02;108358;1258;65267;-90
2023/03/28 03:53:45;;;;;;;7.10;3.50;;;;;;;11.91;60.92;98709.62;107395;1258;61464;-91
2023/03/28 03:56:16;;;;;;;7.10;4.30;;;;;;;11.96;60.91;98701.66;107205;1259;64821;-87
2023/03/28 03:58:56;;;;;;;6.30;3.80;;;;;;;11.98;60.78;98697.54;107343;1263;59211;-89
2023/03/28 04:01:33;;;;;;;9.70;4.20;;;;;;;12.01;60.57;98695.77;107690;1259;60313;-89
2023/03/28 04:04:22;;;;;;;9.60;4.20;;;;;;;12.02;60.22;98691.13;108611;1259;64881;-89
2023/03/28 04:07:13;;;;;;;8.40;4.60;;;;;;;11.98;60.23;98689.30;108783;1259;63033;-88
2023/03/28 04:09:42;;;;;;;7.70;4.90;;;;;;;11.95;60.16;98681.77;108663;1263;63742;-87
2023/03/28 04:12:10;;;;;;;8.70;4.60;;;;;;;11.94;60.13;98675.55;108807;1259;58402;-88
2023/03/28 04:14:46;;;;;;;9.20;5.10;;;;;;;11.92;60.07;98670.88;107611;1259;58352;-87
2023/03/28 04:17:44;;;;;;;6.10;3.80;;;;;;;11.86;60.16;98670.74;107469;1259;65689;-89
2023/03/28 04:20:17;;;;;;;9.40;5.00;;;;;;;11.87;60.23;98673.64;107357;1260;62630;-89
2023/03/28 04:23:07;;;;;;;7.80;4.80;;;;;;;11.87;60.30;98673.15;107551;1257;65258;-89
2023/03/28 04:25:40;;;;;;;7.50;4.80;;;;;;;11.82;60.46;98678.37;107452;1263;60462;-89
2023/03/28 04:28:24;;;;;;;9.10;5.00;;;;;;;11.78;60.72;98670.33;107813;1261;60504;-87
2023/03/28 04:30:58;;;;;;;8.90;5.00;;;;;;;11.76;60.86;98669.77;108133;1259;66266;-88
2023/03/28 04:33:39;;;;;;;9.40;5.30;;;;;;;11.76;61.01;98665.63;108130;1259;62916;-91
2023/03/28 04:36:09;;;;;;;9.90;5.60;;;;;;;11.74;61.16;98657.96;107854;1263;64923;-90
2023/03/28 04:38:40;;;;;;;8.10;4.90;;;;;;;11.73;61.10;98660.02;107615;1263;60535;-88
2023/03/28 04:41:24;;;;;;;8.50;5.00;;;;;;;11.71;61.11;98658.02;108001;1259;58223;-89
2023/03/28 04:44:11;;;;;;;6.70;4.50;;;;;;;11.76;61.06;98659.64;107751;1256;66325;-89
2023/03/28 04:46:45;;;;;;;7.80;4.90;;;;;;;11.79;61.03;98669.64;107620;1260;71982;-85
2023/03/28 04:49:15;;;;;;;8.70;5.40;;;;;;;11.81;61.22;98667.81;107693;1254;65107;-90
2023/03/28 04:51:45;;;;;;;9.90;6.00;;;;;;;11.82;61.41;98661.96;107816;1255;60597;-91
2023/03/28 04:54:14;;;;;;;8.20;5.80;;;;;;;11.82;61.51;98659.28;107447;1256;59334;-90
2023/03/28 04:56:48;;;;;;;9.20;6.30;;;;;;;11.82;61.69;98665.11;108005;1259;66023;-89
2023/03/28 04:59:23;;;;;;;10.10;6.20;;;;;;;11.82;61.67;98656.71;108370;1254;62385;-89
2023/03/28 05:01:51;;;;;;;10.80;6.80;;;;;;;11.78;62.03;98663.30;107871;1255;63743;-93
2023/03/28 05:04:32;;;;;;;9.40;6.20;;;;;;;11.75;62.06;98667.16;108537;1254;72483;-49
2023/03/28 05:07:05;;;;;;;10.40;6.20;;;;;;;11.70;62.28;98660.81;105453;1259;60855;-49
2023/03/28 05:09:33;;;;;;;9.50;5.30;;;;;;;11.71;62.43;98657.02;105503;1254;65701;-49
2023/03/28 05:12:02;;;;;;;8.30;5.90;;;;;;;11.72;62.50;98641.41;105486;1258;62293;-50
2023/03/28 05:14:33;;;;;;;9.00;6.30;;;;;;;11.70;62.38;98628.67;105330;1260;63729;-50
2023/03/28 05:17:12;;;;;;;10.60;7.20;;;;;;;11.62;62.36;98628.16;105292;1259;60451;-50
2023/03/28 05:19:46;;;;;;;10.90;7.30;;;;;;;11.51;62.59;98629.40;105401;1259;60441;-50
2023/03/28 05:22:17;;;;;;;10.20;7.10;;;;;;;11.40;62.80;98621.64;105351;1257;65996;-50
2023/03/28 05:24:47;;;;;;;10.10;7.00;;;;;;;11.33;63.03;98620.48;105544;1258;62382;-50
2023/03/28 05:27:17;;;;;;;9.50;6.70;;;;;;;11.32;63.05;98616.70;105642;1257;64183;-50
2023/03/28 05:29:46;;;;;;;11.10;7.00;;;;;;;11.33;63.12;98610.44;105467;1254;60396;-51
2023/03/28 05:32:17;;;;;;;11.80;8.40;;;;;;;11.33;63.04;98607.32;105454;1259;60530;-50
2023/03/28 05:34:46;;;;;;;13.80;9.80;;;;;;;11.29;63.19;98606.52;105345;1263;67053;-50
2023/03/28 05:37:14;;;;;;;15.70;9.90;;;;;;;11.28;63.17;98599.67;105638;1257;62665;-50
2023/03/28 05:39:52;;;;;;;15.40;10.90;;;;;;;11.22;63.24;98593.46;105640;1257;65049;-50
2023/03/28 05:42:20;;;;;;;18.20;10.10;;;;;;;11.15;63.30;98592.08;105351;1259;60354;-51
2023/03/28 05:44:50;;;;;;;14.20;8.60;;;;;;;11.15;63.37;98582.67;105555;1256;60553;-53
2023/03/28 05:47:22;;;;;;;11.10;7.40;;;;;;;11.16;63.28;98572.94;105279;1254;66488;-52
2023/03/28 05:49:50;;;;;;;12.00;7.30;;;;;;;11.11;63.52;98562.85;105337;1257;62431;-51
2023/03/28 05:52:22;;;;;;;11.10;7.80;;;;;;;11.06;63.68;98552.05;105568;1259;64731;-49
2023/03/28 05:54:51;;;;;;;13.20;8.40;;;;;;;11.02;63.87;98545.73;105379;1257;60457;-50
2023/03/28 05:57:24;;;;;;;10.70;8.10;;;;;;;10.95;63.84;98543.73;105548;1254;60548;-51
2023/03/28 05:59:53;;;;;;;13.30;8.60;;;;;;;10.88;63.98;98543.02;105542;1254;66379;-51
2023/03/28 06:02:23;;;;;;;12.80;8.00;;;;;;;10.88;64.04;98544.78;105557;1254;61592;-49
2023/03/28 06:04:57;;;;;;;12.70;9.50;;;;;;;10.92;64.12;98543.62;105403;1256;65081;-50
2023/03/28 06:07:27;;;;;;;17.00;10.80;;;;;;;10.99;63.95;98540.43;109339;1254;60364;-51
2023/03/28 06:10:11;;;;;;;16.60;11.20;;;;;;;11.05;63.76;98532.71;109264;1254;58651;-51
2023/03/28 06:12:44;;;;;;;17.10;10.50;;;;;;;11.10;63.54;98535.15;109203;1254;65267;-51
2023/03/28 06:15:12;;;;;;;16.70;10.70;;;;;;;11.12;63.30;98525.77;109162;1254;62316;-51
2023/03/28 06:17:48;;;;;;;14.00;9.20;;;;;;;11.15;63.16;98524.60;108851;1256;64048;-50
2023/03/28 06:20:17;;;;;;;13.10;8.00;;;;;;;11.17;62.97;98522.98;105587;1259;60545;-51
2023/03/28 06:22:45;;;;;;;14.20;9.60;;;;;;;11.17;62.80;98518.58;105458;1253;60731;-68
2023/03/28 06:25:14;;;;;;;16.30;8.40;;;;;;;11.18;62.62;98517.78;105987;1257;67561;-68
2023/03/28 06:27:42;;;;;;;14.00;8.60;;;;;;;11.24;62.43;98516.92;105542;1260;62681;-62
2023/03/28 06:30:13;;;;;;;15.80;9.10;;;;;;;11.35;62.37;98514.20;105429;1257;65111;-62
2023/03/28 06:32:46;;;;;;;14.10;9.00;;;;;;;11.47;62.25;98513.45;105527;1254;60498;-62
2023/03/28 06:35:15;;;;;;;11.40;8.30;;;;;;;11.57;62.11;98510.89;105703;1254;60562;-65
2023/03/28 06:37:43;;;;;;;13.10;8.70;;;;;;;11.66;61.62;98511.76;105872;1259;65929;-66
2023/03/28 06:40:15;;;;;;;14.70;8.70;;;;;;;11.72;61.28;98509.74;105938;1255;62597;-65
2023/03/28 06:42:45;;;;;;;14.00;8.60;;;;;;;11.78;60.94;98505.38;105849;1260;65062;-64
2023/03/28 06:45:16;;;;;;;12.70;7.20;;;;;;;11.84;60.69;98503.75;106008;1254;60472;-62
2023/03/28 06:47:50;;;;;;;10.60;7.50;;;;;;;11.85;60.32;98501.36;105878;1254;60452;-66
2023/03/28 06:50:24;;;;;;;10.50;6.40;;;;;;;11.91;60.27;98504.38;105638;1260;65886;-63
2023/03/28 06:52:58;;;;;;;10.80;7.40;;;;;;;12.01;60.02;98502.77;105938;1255;62220;-65
2023/03/28 06:55:28;;;;;;;10.50;6.60;;;;;;;12.07;59.89;98501.61;105829;1258;73639;-59
2023/03/28 06:58:00;;;;;;;10.30;7.10;;;;;;;12.14;59.65;98501.45;106020;1255;60622;-63
2023/03/28 07:00:41;;;;;;;9.90;6.30;;;;;;;12.18;59.42;98500.35;105677;1256;60450;-65
2023/03/28 07:03:30;;;;;;;10.90;6.60;;;;;;;12.22;59.53;98500.73;106162;1254;66137;-63
2023/03/28 07:06:03;;;;;;;10.20;6.20;;;;;;;12.25;59.54;98505.61;106053;1254;62614;-62
2023/03/28 07:08:32;;;;;;;10.40;5.70;;;;;;;12.24;59.28;98507.43;105630;1260;65046;-63
2023/03/28 07:11:01;;;;;;;9.70;6.40;;;;;;;12.24;59.06;98510.45;106108;1254;62209;-63
2023/03/28 07:13:32;;;;;;;10.40;6.10;;;;;;;12.24;59.11;98513.59;105729;1254;60520;-63
2023/03/28 07:16:06;;;;;;;9.90;6.40;;;;;;;12.25;58.85;98509.10;105563;1254;65905;-62
2023/03/28 07:18:35;;;;;;;10.80;5.40;;;;;;;12.30;58.44;98513.55;105548;1260;62638;-60
2023/03/28 07:24:16;;;;;;;7.50;4.70;;;;;;;12.21;58.28;98509.11;102498;1292;600999;-63
2023/03/28 07:27:17;;;;;;;7.90;4.60;;;;;;;12.43;57.33;98506.58;105041;1270;59372;-64
2023/03/28 07:29:46;;;;;;;7.20;4.20;;;;;;;12.50;56.84;98502.48;104989;1263;61029;-63
2023/03/28 07:32:15;;;;;;;6.70;4.30;;;;;;;12.50;56.60;98502.97;105741;1257;64562;-61
2023/03/28 07:34:45;;;;;;;11.70;7.90;;;;;;;12.45;56.49;98500.17;105293;1257;62779;-62
2023/03/28 07:37:18;;;;;;;15.10;7.00;;;;;;;12.41;56.41;98504.21;105797;1254;194048;-62
2023/03/28 07:40:09;;;;;;;9.80;5.90;;;;;;;12.38;56.52;98503.46;105983;1260;59278;-63
2023/03/28 07:42:38;;;;;;;8.10;4.70;;;;;;;12.36;56.47;98504.96;105823;1254;59393;-61
2023/03/28 07:45:10;;;;;;;7.10;4.30;;;;;;;12.35;56.49;98504.09;105645;1254;64555;-61
2023/03/28 07:47:40;;;;;;;8.40;3.60;;;;;;;12.36;56.37;98502.72;105583;1257;62462;-60
2023/03/28 07:50:09;;;;;;;7.90;4.50;;;;;;;12.37;56.34;98505.58;105558;1255;63731;-62
2023/03/28 07:52:44;;;;;;;7.90;4.40;;;;;;;12.36;56.22;98503.94;105478;1260;59662;-62
2023/03/28 07:55:13;;;;;;;6.70;3.90;;;;;;;12.33;56.08;98500.94;105486;1254;59650;-63
2023/03/28 07:57:51;;;;;;;8.50;4.50;;;;;;;12.31;56.11;98494.33;105429;1258;65550;-64
2023/03/28 08:00:32;;;;;;;11.60;7.50;;;;;;;12.29;56.07;98495.44;105852;1254;61338;-61
2023/03/28 08:03:21;;;;;;;7.20;4.80;;;;;;;12.26;55.94;98489.76;105938;1254;65010;-62
2023/03/28 08:05:53;;;;;;;8.30;5.20;;;;;;;12.23;55.79;98486.75;105880;1254;59806;-63
2023/03/28 08:08:23;;;;;;;9.60;6.30;;;;;;;12.20;55.71;98487.29;105973;1254;59697;-63
2023/03/28 08:11:10;;;;;;;9.20;4.90;;;;;;;12.23;55.87;98487.52;105704;1254;64088;-64
2023/03/28 08:13:38;;;;;;;8.60;4.80;;;;;;;12.27;56.22;98490.18;105874;1257;63421;-64
2023/03/28 08:16:19;;;;;;;14.40;8.30;;;;;;;12.27;56.64;98489.70;105776;1259;72683;-64
2023/03/28 08:18:47;;;;;;;9.00;5.20;;;;;;;12.26;57.18;98490.17;105854;1255;59775;-65
2023/03/28 08:21:30;;;;;;;10.60;5.00;;;;;;;12.22;57.80;98494.25;105804;1256;59654;-64
2023/03/28 08:23:58;;;;;;;9.70;5.50;;;;;;;12.18;58.35;98498.58;105914;1259;65393;-62
2023/03/28 08:26:35;;;;;;;11.00;6.20;;;;;;;12.16;58.81;98500.28;105900;1256;61228;-66
2023/03/28 08:29:05;;;;;;;16.60;10.30;;;;;;;12.11;59.16;98499.10;105411;1254;64626;-63
2023/03/28 08:31:34;;;;;;;14.70;11.00;;;;;;;12.03;59.60;98502.27;105412;1254;60268;-65
2023/03/28 08:34:07;;;;;;;9.10;5.30;;;;;;;12.00;59.99;98501.57;105917;1255;59648;-66
2023/03/28 08:36:41;;;;;;;9.70;5.40;;;;;;;11.98;60.69;98503.40;105771;1259;65237;-68
2023/03/28 08:39:20;;;;;;;8.20;5.40;;;;;;;11.97;61.19;98509.35;105942;1256;62574;-67
2023/03/28 08:42:27;;;;;;;14.20;8.30;;;;;;;11.97;61.79;98507.43;105891;1260;65020;-66
2023/03/28 08:45:02;;;;;;;19.00;14.40;;;;;;;11.94;62.19;98507.56;105561;1254;59747;-67
2023/03/28 08:47:31;;;;;;;13.70;9.70;;;;;;;11.89;62.37;98502.01;105676;1257;59742;-64
2023/03/28 08:50:46;;;;;;;8.10;4.70;;;;;;;11.80;62.52;98497.07;105918;1259;65212;-65
2023/03/28 08:53:23;;;;;;;8.00;5.00;;;;;;;11.71;62.72;98491.54;105667;1257;62344;-62
2023/03/28 08:55:52;;;;;;;9.60;4.60;;;;;;;11.67;62.97;98490.23;105351;1255;64021;-62
2023/03/28 08:58:23;;;;;;;10.50;5.10;;;;;;;11.70;63.08;98490.45;105228;1255;59640;-62
2023/03/28 09:00:52;;;;;;;9.50;7.00;;;;;;;11.77;63.18;98493.40;105360;1260;59650;-62
2023/03/28 09:03:22;;;;;;;9.20;5.30;;;;;;;11.83;63.35;98493.71;105455;1258;66236;-62
2023/03/28 09:05:59;;;;;;;10.80;5.20;;;;;;;11.86;63.66;98487.48;105527;1260;61361;-63
2023/03/28 09:08:35;;;;;;;8.60;5.00;;;;;;;11.89;63.53;98486.67;105535;1258;64032;-62
2023/03/28 09:11:20;;;;;;;8.10;5.00;;;;;;;11.90;63.53;98480.02;105591;1254;59761;-61
2023/03/28 09:14:28;;;;;;;7.70;4.50;;;;;;;11.92;63.47;98476.19;105353;1256;59720;-62
2023/03/28 09:17:13;;;;;;;7.70;4.30;;;;;;;11.93;63.46;98468.38;105221;1256;65425;-62
2023/03/28 09:19:52;;;;;;;8.00;4.10;;;;;;;11.95;63.51;98469.37;105523;1257;63006;-61
2023/03/28 09:23:09;;;;;;;7.00;4.30;;;;;;;12.03;63.20;98464.91;105356;1260;64950;-61
2023/03/28 09:26:16;;;;;;;7.50;4.30;;;;;;;12.13;63.27;98464.45;104923;1263;59605;-61
2023/03/28 09:29:00;;;;;;;8.10;4.30;;;;;;;12.14;63.17;98463.91;105434;1255;59618;-61
2023/03/28 09:31:36;;;;;;;10.10;4.90;;;;;;;12.13;63.17;98463.80;105070;1264;65470;-62
2023/03/28 09:34:06;;;;;;;8.00;4.30;;;;;;;12.09;63.29;98461.88;105653;1257;62300;-62
2023/03/28 09:36:42;;;;;;;8.30;5.20;;;;;;;12.06;63.22;98462.58;105362;1256;63760;-61
2023/03/28 09:39:29;;;;;;;7.00;4.90;;;;;;;12.02;63.40;98458.25;109045;1254;57585;-60
2023/03/28 09:42:13;;;;;;;7.50;4.50;;;;;;;12.06;63.58;98456.64;106229;1256;59663;-62
2023/03/28 09:44:54;;;;;;;8.50;6.50;;;;;;;12.13;63.55;98457.94;105173;1259;65390;-62
2023/03/28 09:47:45;;;;;;;7.80;4.90;;;;;;;12.17;63.62;98455.55;105150;1257;62713;-61
2023/03/28 09:50:17;;;;;;;7.60;4.60;;;;;;;12.15;63.69;98457.11;105492;1257;65140;-63
2023/03/28 09:52:51;;;;;;;7.80;4.40;;;;;;;12.14;63.65;98455.70;105651;1254;59612;-59
2023/03/28 09:55:22;;;;;;;6.40;4.00;;;;;;;12.13;63.55;98455.33;105334;1254;59780;-62
2023/03/28 09:58:08;;;;;;;12.50;8.90;;;;;;;12.11;63.54;98456.23;105316;1256;65510;-63
2023/03/28 10:00:55;;;;;;;11.50;8.80;;;;;;;12.14;63.58;98457.79;105363;1257;62848;-60
2023/03/28 10:03:53;;;;;;;7.10;4.10;;;;;;;12.20;63.56;98456.60;105400;1257;63741;-61
2023/03/28 10:06:28;;;;;;;8.70;5.50;;;;;;;12.25;63.49;98453.91;105329;1254;59647;-60
2023/03/28 10:09:27;;;;;;;6.70;3.60;;;;;;;12.25;63.24;98454.08;105696;1251;59762;-61
2023/03/28 10:12:08;;;;;;;6.40;3.40;;;;;;;12.21;63.14;98457.39;105760;1254;65192;-61
2023/03/28 10:14:40;;;;;;;5.90;2.90;;;;;;;12.16;63.16;98452.99;105979;1252;62264;-61
2023/03/28 10:17:28;;;;;;;6.60;3.40;;;;;;;12.11;63.34;98447.23;105763;1251;64856;-62
2023/03/28 10:20:06;;;;;;;5.60;3.10;;;;;;;12.06;63.26;98447.64;105523;1251;59548;-62
2023/03/28 10:22:38;;;;;;;8.80;6.10;;;;;;;12.02;63.34;98447.25;105810;1251;59762;-62
2023/03/28 10:25:07;;;;;;;15.60;12.00;;;;;;;11.99;63.50;98442.64;105776;1251;64426;-61
2023/03/28 10:27:37;;;;;;;18.40;13.30;;;;;;;11.98;63.75;98442.58;105644;1251;62434;-61
2023/03/28 10:30:28;;;;;;;15.30;9.70;;;;;;;11.99;63.78;98439.27;105752;1251;64819;-61
2023/03/28 10:33:20;;;;;;;17.90;10.90;;;;;;;12.04;64.06;98441.74;105593;1251;59651;-61
2023/03/28 10:36:11;;;;;;;9.00;5.70;;;;;;;12.08;64.06;98439.56;105562;1251;59628;-61
2023/03/28 10:38:42;;;;;;;6.90;3.80;;;;;;;12.08;63.91;98436.29;105685;1257;65107;-60
2023/03/28 10:41:29;;;;;;;6.40;3.20;;;;;;;12.04;63.53;98432.20;106132;1251;62808;-62
2023/03/28 10:44:18;;;;;;;12.00;7.60;;;;;;;11.98;63.43;98432.56;105587;1252;64735;-61
2023/03/28 10:47:17;;;;;;;11.50;7.10;;;;;;;11.95;63.39;98424.56;105620;1255;59662;-61
2023/03/28 10:49:54;;;;;;;14.30;7.80;;;;;;;11.97;63.29;98427.46;105710;1251;59650;-59
2023/03/28 10:52:42;;;;;;;9.60;5.00;;;;;;;12.01;63.25;98423.64;105552;1257;73832;-59
2023/03/28 10:55:22;;;;;;;9.00;5.60;;;;;;;12.06;63.32;98421.48;105637;1250;61529;-61
2023/03/28 10:58:30;;;;;;;12.40;6.50;;;;;;;12.11;63.33;98423.38;105630;1254;65012;-60
2023/03/28 11:01:07;;;;;;;21.80;18.10;;;;;;;12.13;63.17;98422.75;105734;1251;59670;-60
2023/03/28 11:03:51;;;;;;;12.20;8.20;;;;;;;12.09;63.03;98418.68;105581;1251;59700;-60
2023/03/28 11:06:31;;;;;;;9.50;5.40;;;;;;;12.03;63.00;98416.91;105598;1251;65438;-61
2023/03/28 11:09:21;;;;;;;6.90;2.50;;;;;;;11.97;63.14;98415.64;105423;1256;61768;-61
2023/03/28 11:12:45;;;;;;;7.10;2.60;;;;;;;12.02;63.12;98407.12;104824;1263;64901;-61
2023/03/28 11:15:42;;;;;;;11.30;6.40;;;;;;;12.10;63.03;98404.39;105040;1264;59900;-60
2023/03/28 11:18:19;;;;;;;19.90;14.40;;;;;;;12.15;63.01;98404.05;105478;1256;59716;-60
2023/03/28 11:20:56;;;;;;;15.50;10.90;;;;;;;12.17;62.90;98400.34;105698;1253;65206;-61
2023/03/28 11:23:34;;;;;;;18.70;11.60;;;;;;;12.16;62.75;98398.55;105828;1251;62665;-61
2023/03/28 11:26:47;;;;;;;6.60;3.70;;;;;;;12.13;62.74;98395.22;105791;1252;64767;-61
2023/03/28 11:30:16;;;;;;;5.60;2.60;;;;;;;12.07;62.85;98395.14;105609;1251;59633;-61
2023/03/28 11:33:54;;;;;;;4.80;2.00;;;;;;;12.05;62.86;98392.23;105519;1251;59893;-63
2023/03/28 11:36:35;;;;;;;4.30;1.50;;;;;;;12.12;62.97;98392.70;105643;1256;64394;-61
2023/03/28 11:39:33;;;;;;;4.00;1.50;;;;;;;12.20;63.23;98391.30;105454;1258;61669;-60
2023/03/28 11:42:06;;;;;;;4.00;1.70;;;;;;;12.26;63.38;98389.07;105680;1251;64064;-61
2023/03/28 11:44:44;;;;;;;4.20;1.70;;;;;;;12.30;63.40;98386.61;105528;1253;59670;-63
2023/03/28 11:47:17;;;;;;;5.10;1.90;;;;;;;12.36;63.28;98390.38;105635;1251;59627;-61
2023/03/28 11:49:52;;;;;;;5.80;2.00;;;;;;;12.40;63.27;98387.42;105664;1251;72304;-58
2023/03/28 11:53:02;;;;;;;5.30;2.30;;;;;;;12.39;63.03;98384.83;105311;1257;62543;-56
2023/03/28 11:55:43;;;;;;;5.60;1.60;;;;;;;12.40;63.02;98383.16;105310;1258;65996;-60
2023/03/28 11:58:23;;;;;;;4.20;1.80;;;;;;;12.48;62.60;98379.68;105569;1251;60472;-61
2023/03/28 12:01:01;;;;;;;5.60;1.80;;;;;;;12.55;62.43;98378.40;105518;1251;60705;-62
2023/03/28 12:03:36;;;;;;;4.40;1.90;;;;;;;12.61;62.46;98371.36;105421;1257;66179;-61
2023/03/28 12:06:21;;;;;;;4.40;2.10;;;;;;;12.63;62.29;98372.61;105538;1251;62549;-61
2023/03/28 12:08:56;;;;;;;4.50;2.00;;;;;;;12.61;62.28;98373.84;105505;1257;65192;-60
2023/03/28 12:11:38;;;;;;;4.70;2.00;;;;;;;12.55;62.29;98374.54;105310;1251;60616;-60
2023/03/28 12:14:10;;;;;;;5.70;2.60;;;;;;;12.50;62.26;98375.17;105618;1251;60797;-60
2023/03/28 12:16:46;;;;;;;5.10;2.20;;;;;;;12.48;62.41;98372.23;105352;1257;66291;-62